Time;durP1;ratioP1;P1;durP2;ratioP2;P2;SDS_P1;SDS_P2;PMS_P1;PMS_P2;Temp;Humidity;BMP_temperature;BMP_pressure;BME280_temperature;BME280_humidity;BME280_pressure;Samples;Min_cycle;Max_cycle;Signal;HPM_P1;HPM_P2
2021/08/26 00:07:36;;;;;;;3.73;3.43;;;;;;;24.74;43.18;98313.66;5035111;28;20171;-52
2021/08/26 00:10:08;;;;;;;4.90;3.70;;;;;;;24.71;43.46;98306.88;5034769;28;20194;-53
2021/08/26 00:12:38;;;;;;;3.97;3.57;;;;;;;24.71;43.53;98303.41;5034637;28;20215;-53
2021/08/26 00:15:06;;;;;;;4.17;3.60;;;;;;;24.71;43.53;98300.75;5034969;28;20174;-51
2021/08/26 00:17:33;;;;;;;3.70;3.40;;;;;;;24.64;43.60;98288.22;5034772;28;20217;-52
2021/08/26 00:20:00;;;;;;;3.93;3.23;;;;;;;24.64;43.53;98290.06;5034781;28;20205;-49
2021/08/26 00:22:26;;;;;;;3.97;3.57;;;;;;;24.64;43.43;98288.22;5034560;28;20220;-51
2021/08/26 00:24:53;;;;;;;3.97;3.57;;;;;;;24.63;43.46;98286.56;5034509;28;20221;-50
2021/08/26 00:27:19;;;;;;;4.13;3.63;;;;;;;24.60;43.65;98281.66;5034390;28;20190;-50
2021/08/26 00:29:46;;;;;;;4.17;3.50;;;;;;;24.58;43.74;98281.03;5033154;28;20198;-51
2021/08/26 00:32:12;;;;;;;3.90;3.50;;;;;;;24.54;43.69;98282.47;5034261;28;20214;-52
2021/08/26 00:34:40;;;;;;;3.80;3.43;;;;;;;24.51;43.55;98278.38;5034329;28;20201;-51
2021/08/26 00:37:06;;;;;;;4.27;3.60;;;;;;;24.62;43.53;98279.59;5033891;28;20190;-51
2021/08/26 00:39:33;;;;;;;3.63;3.33;;;;;;;24.60;43.53;98276.31;5034428;28;20573;-53
2021/08/26 00:41:59;;;;;;;3.70;3.40;;;;;;;24.57;43.52;98278.56;5034509;28;20213;-53
2021/08/26 00:44:26;;;;;;;4.53;3.83;;;;;;;24.57;43.52;98275.91;5033989;28;20205;-51
2021/08/26 00:46:52;;;;;;;4.97;4.13;;;;;;;24.58;43.48;98277.53;5034082;28;20194;-53
2021/08/26 00:49:19;;;;;;;4.10;3.70;;;;;;;24.61;43.30;98277.16;5034226;28;20589;-53
2021/08/26 00:51:46;;;;;;;4.00;3.60;;;;;;;24.62;43.41;98270.78;5034048;28;20194;-53
2021/08/26 00:54:13;;;;;;;4.00;3.60;;;;;;;24.62;43.29;98271.59;5032744;28;20197;-53
2021/08/26 00:56:39;;;;;;;3.30;3.00;;;;;;;24.57;43.58;98268.72;5034164;28;20675;-50
2021/08/26 00:59:07;;;;;;;3.90;3.50;;;;;;;24.57;43.43;98270.56;5033762;28;20206;-50
2021/08/26 01:01:47;;;;;;;4.20;3.80;;;;;;;24.58;43.44;98262.34;5033763;28;20194;-51
2021/08/26 01:04:27;;;;;;;3.73;3.40;;;;;;;24.57;43.62;98262.56;5034039;28;20174;-50
2021/08/26 01:07:04;;;;;;;4.07;3.67;;;;;;;24.56;43.53;98248.41;5033782;28;20174;-51
2021/08/26 01:09:43;;;;;;;4.00;3.50;;;;;;;24.53;43.54;98246.97;5033663;28;20170;-52
2021/08/26 01:12:15;;;;;;;3.73;3.43;;;;;;;24.53;43.48;98246.97;5033780;28;20240;-53
2021/08/26 01:14:42;;;;;;;4.13;3.40;;;;;;;24.48;43.53;98251.28;5032404;28;20188;-51
2021/08/26 01:17:16;;;;;;;4.00;3.60;;;;;;;24.47;43.40;98252.28;5033381;28;20194;-51
2021/08/26 01:19:42;;;;;;;4.50;4.00;;;;;;;24.47;43.55;98246.97;5033704;28;20181;-52
2021/08/26 01:22:09;;;;;;;3.97;3.57;;;;;;;24.47;43.51;98252.28;5033380;28;20209;-51
2021/08/26 01:24:36;;;;;;;4.37;3.63;;;;;;;24.52;43.43;98247.16;5033863;28;20186;-51
2021/08/26 01:27:05;;;;;;;3.63;3.33;;;;;;;24.48;43.36;98248.59;5033692;28;20652;-51
2021/08/26 01:29:32;;;;;;;3.73;3.40;;;;;;;24.46;43.65;98250.66;5033557;28;20549;-51
2021/08/26 01:32:00;;;;;;;3.67;3.37;;;;;;;24.44;43.54;98260.72;5033241;28;20202;-51
2021/08/26 01:34:27;;;;;;;4.60;3.37;;;;;;;24.46;43.63;98256.00;5033176;28;20201;-50
2021/08/26 01:36:54;;;;;;;3.97;3.60;;;;;;;24.47;43.26;98254.97;5033157;28;20665;-50
2021/08/26 01:39:20;;;;;;;3.77;3.27;;;;;;;24.44;43.54;98247.38;5033579;28;20206;-51
2021/08/26 01:41:52;;;;;;;4.20;3.60;;;;;;;24.46;43.59;98248.00;5033262;28;20194;-52
2021/08/26 01:44:26;;;;;;;3.93;3.53;;;;;;;24.47;43.48;98249.63;5032960;28;20190;-51
2021/08/26 01:47:15;;;;;;;3.63;3.33;;;;;;;24.46;43.49;98248.00;5033278;28;20181;-52
2021/08/26 01:49:43;;;;;;;4.47;3.80;;;;;;;24.47;43.55;98244.28;5033047;28;20174;-51
2021/08/26 01:52:13;;;;;;;3.37;3.07;;;;;;;24.44;43.49;98242.03;5033168;28;20750;-52
2021/08/26 01:54:39;;;;;;;3.80;3.50;;;;;;;24.43;43.58;98233.22;5033466;28;20308;-51
2021/08/26 01:57:06;;;;;;;3.87;3.50;;;;;;;24.40;43.46;98222.16;5033295;28;20660;-51
2021/08/26 01:59:34;;;;;;;3.63;3.30;;;;;;;24.40;43.64;98219.50;5032893;28;20595;-51
2021/08/26 02:02:00;;;;;;;4.10;3.70;;;;;;;24.38;43.56;98212.50;5033008;28;20213;-52
2021/08/26 02:04:27;;;;;;;4.60;3.70;;;;;;;24.38;43.49;98212.50;5032869;28;20261;-52
2021/08/26 02:06:53;;;;;;;3.80;3.50;;;;;;;24.37;43.64;98202.88;5032810;28;20190;-52
2021/08/26 02:09:20;;;;;;;3.63;3.30;;;;;;;24.39;43.47;98197.31;5032818;28;20205;-51
2021/08/26 02:11:46;;;;;;;4.27;3.60;;;;;;;24.33;43.66;98195.47;5032659;28;20192;-50
2021/08/26 02:14:13;;;;;;;3.90;3.53;;;;;;;24.32;43.67;98194.66;5033301;28;20539;-52
2021/08/26 02:16:39;;;;;;;4.10;3.60;;;;;;;24.32;43.72;98194.66;5032704;28;20201;-50
2021/08/26 02:19:06;;;;;;;3.70;3.40;;;;;;;24.32;43.66;98193.84;5032725;28;20569;-53
2021/08/26 02:21:32;;;;;;;3.97;3.57;;;;;;;24.34;43.59;98189.94;5032880;28;20600;-51
2021/08/26 02:23:59;;;;;;;3.50;3.20;;;;;;;24.31;43.53;98185.00;5032685;28;20186;-51
2021/08/26 02:26:25;;;;;;;4.90;3.87;;;;;;;24.33;43.70;98188.28;5032853;28;20227;-50
2021/08/26 02:28:52;;;;;;;4.27;3.50;;;;;;;24.28;43.72;98182.75;5032608;28;20193;-51
2021/08/26 02:31:19;;;;;;;4.03;3.63;;;;;;;24.31;43.60;98179.69;5032612;28;20186;-51
2021/08/26 02:33:45;;;;;;;3.60;3.30;;;;;;;24.26;43.74;98184.81;5032769;28;20214;-51
2021/08/26 02:36:12;;;;;;;4.00;3.60;;;;;;;24.21;43.76;98180.09;5032480;28;20198;-51
2021/08/26 02:38:38;;;;;;;3.57;3.27;;;;;;;24.22;43.72;98186.25;5032510;28;20263;-52
2021/08/26 02:41:05;;;;;;;3.73;3.40;;;;;;;24.23;43.92;98175.38;5032527;28;20194;-52
2021/08/26 02:43:32;;;;;;;3.70;3.40;;;;;;;24.23;43.65;98174.56;5032267;28;20287;-51
2021/08/26 02:45:58;;;;;;;4.20;3.80;;;;;;;24.23;43.70;98169.25;5032756;28;20193;-51
2021/08/26 02:48:25;;;;;;;4.03;3.63;;;;;;;24.22;43.76;98164.94;5032483;28;20329;-51
2021/08/26 02:50:52;;;;;;;3.87;3.50;;;;;;;24.24;43.85;98165.53;5032428;28;20194;-51
2021/08/26 02:53:18;;;;;;;3.63;3.33;;;;;;;24.23;43.68;98163.91;5032610;28;20210;-51
2021/08/26 02:55:45;;;;;;;4.37;3.80;;;;;;;24.23;43.65;98163.91;5032646;28;20191;-51
2021/08/26 02:58:11;;;;;;;3.60;3.30;;;;;;;24.25;43.74;98151.19;5032275;28;20260;-51
2021/08/26 03:00:38;;;;;;;3.80;3.50;;;;;;;24.24;43.67;98166.34;5035686;28;20189;-52
2021/08/26 03:03:04;;;;;;;3.90;3.53;;;;;;;24.22;43.70;98164.94;5036058;28;20206;-52
2021/08/26 03:05:31;;;;;;;3.83;3.40;;;;;;;24.23;43.76;98170.03;5035987;28;20190;-51
2021/08/26 03:07:58;;;;;;;4.33;3.57;;;;;;;24.31;43.41;98171.69;5035987;28;20236;-51
2021/08/26 03:10:25;;;;;;;3.53;3.23;;;;;;;24.32;43.59;98167.97;5035909;28;20236;-51
2021/08/26 03:12:52;;;;;;;3.57;3.23;;;;;;;24.34;43.55;98165.94;5035768;28;20218;-51
2021/08/26 03:15:20;;;;;;;4.00;3.60;;;;;;;24.36;43.18;98168.41;5035758;28;20186;-51
2021/08/26 03:17:46;;;;;;;3.80;3.50;;;;;;;24.38;43.35;98164.50;5035649;28;20201;-51
2021/08/26 03:20:14;;;;;;;4.30;3.90;;;;;;;24.37;43.28;98170.03;5036197;28;20201;-51
2021/08/26 03:22:41;;;;;;;5.13;3.87;;;;;;;24.38;43.25;98163.69;5035541;28;20209;-51
2021/08/26 03:25:08;;;;;;;3.90;3.50;;;;;;;24.35;43.25;98156.91;5036132;28;20186;-51
2021/08/26 03:27:35;;;;;;;4.00;3.60;;;;;;;24.34;43.38;98147.25;5035684;28;20186;-51
2021/08/26 03:30:01;;;;;;;3.80;3.40;;;;;;;24.31;43.29;98150.34;5035562;28;20537;-51
2021/08/26 03:32:28;;;;;;;4.27;3.40;;;;;;;24.32;43.42;98154.66;5035411;28;20615;-51
2021/08/26 03:34:54;;;;;;;4.30;3.90;;;;;;;24.30;43.59;98159.38;5035682;28;20660;-54
2021/08/26 03:37:21;;;;;;;4.20;3.80;;;;;;;24.32;43.31;98165.31;5035425;28;20264;-51
2021/08/26 03:39:47;;;;;;;4.40;4.00;;;;;;;24.32;43.42;98162.66;5035305;28;20209;-51
2021/08/26 03:42:13;;;;;;;5.07;4.10;;;;;;;24.32;43.24;98157.31;5035207;28;20618;-51
2021/08/26 03:44:40;;;;;;;4.27;3.87;;;;;;;24.30;43.49;98154.03;5035191;28;20197;-51
2021/08/26 03:47:06;;;;;;;4.13;3.43;;;;;;;24.31;43.42;98149.53;5035432;28;20190;-52
2021/08/26 03:49:33;;;;;;;3.80;3.43;;;;;;;24.28;43.48;98140.09;5035463;28;20555;-51
2021/08/26 03:52:00;;;;;;;5.60;3.93;;;;;;;24.28;43.25;98156.09;5035000;28;20210;-51
2021/08/26 03:54:26;;;;;;;4.83;4.33;;;;;;;24.29;43.33;98146.25;5035351;28;20182;-51
2021/08/26 03:56:53;;;;;;;4.87;3.90;;;;;;;24.24;43.54;98142.34;5035165;28;20190;-51
2021/08/26 03:59:19;;;;;;;3.97;3.57;;;;;;;24.25;43.47;98135.19;5034938;28;20210;-53
2021/08/26 04:01:46;;;;;;;4.30;3.83;;;;;;;24.22;43.46;98136.41;5035322;28;20190;-51
2021/08/26 04:04:13;;;;;;;4.50;3.90;;;;;;;24.20;43.73;98132.28;5035183;28;20236;-52
2021/08/26 04:06:40;;;;;;;5.50;4.07;;;;;;;24.21;43.54;98134.78;5034831;28;20240;-53
2021/08/26 04:09:06;;;;;;;5.47;3.80;;;;;;;24.19;43.73;98128.00;5035286;28;20186;-52
2021/08/26 04:11:33;;;;;;;4.97;4.37;;;;;;;24.18;43.60;98129.03;5034352;28;20194;-51
2021/08/26 04:13:59;;;;;;;4.10;3.57;;;;;;;24.23;43.48;98121.25;5034714;28;20208;-51
2021/08/26 04:16:26;;;;;;;4.40;4.00;;;;;;;24.22;43.40;98120.41;5035128;28;20201;-51
2021/08/26 04:18:53;;;;;;;4.37;4.00;;;;;;;24.23;43.48;98123.91;5034545;28;20217;-52
2021/08/26 04:21:19;;;;;;;4.37;3.97;;;;;;;24.23;43.33;98119.38;5034549;28;20194;-52
2021/08/26 04:23:45;;;;;;;3.70;3.40;;;;;;;24.24;43.53;98123.69;5033225;28;20719;-52
2021/08/26 04:26:12;;;;;;;4.33;3.93;;;;;;;24.21;43.57;98118.78;5034457;28;20201;-51
2021/08/26 04:28:38;;;;;;;4.63;4.17;;;;;;;24.20;43.58;98121.63;5034368;28;20186;-51
2021/08/26 04:31:05;;;;;;;4.60;4.20;;;;;;;24.22;43.58;98115.06;5034388;28;20197;-51
2021/08/26 04:33:32;;;;;;;4.30;3.90;;;;;;;24.23;43.52;98115.91;5034290;28;20718;-51
2021/08/26 04:35:58;;;;;;;4.97;4.17;;;;;;;24.20;43.54;98113.63;5034292;28;20665;-51
2021/08/26 04:38:25;;;;;;;4.30;3.90;;;;;;;24.16;43.61;98109.75;5034178;28;20214;-51
2021/08/26 04:40:52;;;;;;;4.43;3.90;;;;;;;24.15;43.75;98116.09;5034706;28;20240;-52
2021/08/26 04:43:19;;;;;;;4.90;3.97;;;;;;;24.16;43.60;98109.75;5034192;28;20264;-52
2021/08/26 04:45:45;;;;;;;4.37;3.70;;;;;;;24.18;43.71;98107.69;5034353;28;20256;-51
2021/08/26 04:48:12;;;;;;;4.73;3.83;;;;;;;24.18;43.63;98110.34;5034097;28;20260;-52
2021/08/26 04:50:38;;;;;;;4.67;4.10;;;;;;;24.17;43.67;98109.56;5034096;28;20205;-51
2021/08/26 04:53:05;;;;;;;4.40;4.00;;;;;;;24.18;43.65;98111.19;5033863;28;20555;-54
2021/08/26 04:55:31;;;;;;;5.07;4.53;;;;;;;24.18;43.68;98110.34;5033916;28;20193;-52
2021/08/26 04:57:58;;;;;;;4.70;3.97;;;;;;;24.22;43.54;98106.28;5033945;28;20194;-53
2021/08/26 05:00:24;;;;;;;5.83;4.10;;;;;;;24.22;43.60;98106.28;5033762;28;20209;-51
2021/08/26 05:02:51;;;;;;;4.73;4.23;;;;;;;24.20;43.59;98110.97;5033735;28;20210;-51
2021/08/26 05:05:18;;;;;;;4.83;4.43;;;;;;;24.18;43.56;98119.19;5033711;28;20220;-51
2021/08/26 05:07:44;;;;;;;4.50;4.10;;;;;;;24.15;43.72;98114.28;5033730;28;20194;-53
2021/08/26 05:10:11;;;;;;;4.70;4.13;;;;;;;24.16;43.56;98126.56;5033673;28;20185;-51
2021/08/26 05:12:37;;;;;;;3.93;3.63;;;;;;;24.15;43.68;98129.44;5033701;28;20220;-53
2021/08/26 05:15:04;;;;;;;4.20;3.80;;;;;;;24.16;43.58;98131.06;5033594;28;20194;-51
2021/08/26 05:17:31;;;;;;;4.27;3.87;;;;;;;24.16;43.51;98121.25;5033798;28;20189;-52
2021/08/26 05:19:57;;;;;;;4.73;4.23;;;;;;;24.18;43.82;98123.69;5033455;28;20710;-51
2021/08/26 05:22:24;;;;;;;4.13;3.73;;;;;;;24.17;43.74;98127.38;5033043;28;20209;-52
2021/08/26 05:24:51;;;;;;;4.40;4.00;;;;;;;24.16;43.65;98115.91;5033750;28;20186;-52
2021/08/26 05:27:18;;;;;;;4.80;3.80;;;;;;;24.15;43.81;98130.28;5033977;28;20197;-52
2021/08/26 05:29:45;;;;;;;4.77;4.30;;;;;;;24.14;43.75;98133.97;5033550;28;20260;-51
2021/08/26 05:32:12;;;;;;;4.10;3.70;;;;;;;24.14;43.57;98136.63;5033439;28;20206;-53
2021/08/26 05:34:40;;;;;;;4.30;3.90;;;;;;;24.17;43.60;98127.38;5033760;28;20211;-53
2021/08/26 05:37:07;;;;;;;4.10;3.70;;;;;;;24.18;43.77;98134.34;5033402;28;20193;-53
2021/08/26 05:39:33;;;;;;;4.50;4.10;;;;;;;24.20;43.66;98127.81;5033257;28;20288;-53
2021/08/26 05:42:00;;;;;;;4.97;4.17;;;;;;;24.15;43.83;98134.78;5033239;28;20209;-51
2021/08/26 05:44:26;;;;;;;4.53;3.90;;;;;;;24.09;43.87;98131.91;5033208;28;20265;-53
2021/08/26 05:46:53;;;;;;;5.10;4.60;;;;;;;24.14;43.78;98122.47;5033303;28;20241;-52
2021/08/26 05:49:19;;;;;;;4.80;4.27;;;;;;;24.12;43.97;98130.66;5033239;28;20792;-53
2021/08/26 05:51:46;;;;;;;5.37;4.27;;;;;;;24.14;43.70;98123.31;5033102;28;20564;-51
2021/08/26 05:54:12;;;;;;;5.43;4.40;;;;;;;24.18;43.60;98123.69;5032741;28;20748;-53
2021/08/26 05:56:39;;;;;;;4.90;4.40;;;;;;;24.19;43.68;98125.31;5033096;28;20719;-53
2021/08/26 05:59:05;;;;;;;4.60;4.20;;;;;;;24.17;43.72;98127.38;5032978;28;20206;-52
2021/08/26 06:01:32;;;;;;;5.00;4.10;;;;;;;24.22;43.47;98138.28;5032988;28;20209;-52
2021/08/26 06:03:59;;;;;;;4.20;3.90;;;;;;;24.27;43.38;98127.78;5032980;28;20197;-54
2021/08/26 06:06:25;;;;;;;5.50;3.70;;;;;;;24.26;43.53;98131.50;5033014;28;20682;-51
2021/08/26 06:08:51;;;;;;;4.17;3.73;;;;;;;24.27;43.51;98127.78;5032992;28;20197;-53
2021/08/26 06:11:18;;;;;;;4.23;3.83;;;;;;;24.28;43.52;98124.09;5033118;28;20666;-52
2021/08/26 06:13:45;;;;;;;4.27;3.87;;;;;;;24.30;43.33;98131.91;5032806;28;20220;-52
2021/08/26 06:16:11;;;;;;;5.80;4.10;;;;;;;24.32;43.30;98130.66;5032921;28;20189;-52
2021/08/26 06:18:38;;;;;;;4.10;3.70;;;;;;;24.32;43.40;98130.66;5032902;28;20273;-51
2021/08/26 06:21:04;;;;;;;3.80;3.40;;;;;;;24.36;43.40;98133.72;5032923;28;20546;-53
2021/08/26 06:23:31;;;;;;;4.47;3.90;;;;;;;24.43;43.19;98126.53;5032909;28;20213;-54
2021/08/26 06:25:57;;;;;;;4.50;4.10;;;;;;;24.45;43.24;98126.34;5032898;28;20217;-54
2021/08/26 06:28:25;;;;;;;4.27;3.87;;;;;;;24.45;43.15;98131.66;5032529;28;20197;-55
2021/08/26 06:30:51;;;;;;;4.27;3.87;;;;;;;24.44;43.10;98135.38;5033498;28;20201;-56
2021/08/26 06:33:18;;;;;;;4.13;3.73;;;;;;;24.35;43.25;98132.91;5033540;28;20572;-52
2021/08/26 06:35:45;;;;;;;4.03;3.63;;;;;;;24.35;43.29;98135.56;5037336;28;20190;-54
2021/08/26 06:38:11;;;;;;;4.30;3.90;;;;;;;24.38;43.16;98134.34;5037639;28;20189;-53
2021/08/26 06:40:38;;;;;;;4.23;3.67;;;;;;;24.42;43.21;98145.41;5038653;28;20688;-53
2021/08/26 06:43:04;;;;;;;5.77;3.93;;;;;;;24.43;43.26;98134.53;5039496;28;20217;-51
2021/08/26 06:45:31;;;;;;;5.40;4.00;;;;;;;24.46;43.36;98136.81;5040438;28;20194;-52
2021/08/26 06:47:57;;;;;;;4.07;3.67;;;;;;;24.50;43.10;98138.03;5040106;28;20677;-54
2021/08/26 06:50:24;;;;;;;4.27;3.87;;;;;;;24.54;43.07;98133.09;5039633;28;20208;-51
2021/08/26 06:52:50;;;;;;;5.60;4.20;;;;;;;24.57;43.02;98137.19;5039152;28;20209;-54
2021/08/26 06:55:17;;;;;;;5.37;4.20;;;;;;;24.63;43.04;98136.34;5039128;28;20244;-52
2021/08/26 06:57:43;;;;;;;4.07;3.53;;;;;;;24.57;43.09;98142.50;5039565;28;20186;-52
2021/08/26 07:00:10;;;;;;;3.87;3.47;;;;;;;24.63;42.80;98137.16;5039104;28;20205;-52
2021/08/26 07:02:37;;;;;;;4.17;3.77;;;;;;;24.53;43.04;98144.78;5039233;28;20229;-52
2021/08/26 07:05:04;;;;;;;5.33;3.93;;;;;;;24.53;43.15;98144.78;5038153;28;20260;-54
2021/08/26 07:07:31;;;;;;;4.10;3.70;;;;;;;24.55;43.23;98141.91;5038880;28;20208;-54
2021/08/26 07:09:57;;;;;;;4.27;3.80;;;;;;;24.56;43.00;98144.38;5037416;28;20186;-49
2021/08/26 07:12:25;;;;;;;4.03;3.73;;;;;;;24.51;43.32;98145.00;5038289;28;20220;-53
2021/08/26 07:14:51;;;;;;;4.50;4.10;;;;;;;24.48;43.23;98145.41;5039356;28;20641;-53
2021/08/26 07:17:18;;;;;;;4.77;3.93;;;;;;;24.50;43.16;98150.53;5038457;28;20190;-52
2021/08/26 07:19:44;;;;;;;4.60;3.83;;;;;;;24.41;43.42;98155.25;5037176;28;20210;-55
2021/08/26 07:22:11;;;;;;;4.33;3.93;;;;;;;24.39;43.56;98151.97;5038792;28;20214;-50
2021/08/26 07:24:37;;;;;;;6.97;4.00;;;;;;;24.31;43.65;98161.00;5040837;28;20186;-52
2021/08/26 07:27:04;;;;;;;4.00;3.60;;;;;;;24.35;43.58;98158.75;5040049;28;20194;-52
2021/08/26 07:29:30;;;;;;;4.20;3.83;;;;;;;24.40;43.48;98166.16;5040417;28;20186;-53
2021/08/26 07:31:57;;;;;;;4.33;3.93;;;;;;;24.38;43.49;98167.19;5040496;28;20210;-53
2021/08/26 07:34:23;;;;;;;4.03;3.63;;;;;;;24.40;43.54;98168.81;5040830;28;20193;-54
2021/08/26 07:36:50;;;;;;;4.37;3.93;;;;;;;24.45;43.61;98163.66;5040405;28;20190;-53
2021/08/26 07:39:16;;;;;;;3.90;3.50;;;;;;;24.46;43.48;98149.31;5039442;28;20209;-50
2021/08/26 07:41:43;;;;;;;4.43;4.03;;;;;;;24.39;43.58;98157.31;5040221;28;20660;-53
2021/08/26 07:44:09;;;;;;;3.90;3.50;;;;;;;24.41;43.66;98173.13;5037909;28;20202;-52
2021/08/26 07:46:36;;;;;;;4.33;3.43;;;;;;;24.40;43.60;98163.47;5039360;28;20198;-52
2021/08/26 07:49:05;;;;;;;4.93;4.27;;;;;;;24.32;43.75;98167.97;5039827;28;20205;-55
2021/08/26 07:51:31;;;;;;;4.67;3.73;;;;;;;24.29;43.97;98167.59;5050022;28;20201;-53
2021/08/26 07:53:59;;;;;;;4.00;3.60;;;;;;;24.28;43.96;98163.25;5061603;28;20205;-56
2021/08/26 07:56:25;;;;;;;3.90;3.50;;;;;;;24.31;43.85;98166.34;5067950;28;20554;-53
2021/08/26 07:58:52;;;;;;;4.63;3.40;;;;;;;24.31;43.93;98154.88;5058177;28;20251;-51
2021/08/26 08:01:18;;;;;;;4.40;4.00;;;;;;;24.43;43.97;98155.06;5058689;28;20280;-55
2021/08/26 08:03:45;;;;;;;4.47;4.07;;;;;;;24.48;43.71;98155.25;5066496;28;20217;-57
2021/08/26 08:06:12;;;;;;;3.87;3.50;;;;;;;24.52;43.92;98154.63;5057832;28;20209;-53
2021/08/26 08:08:38;;;;;;;3.97;3.57;;;;;;;24.54;43.62;98162.44;5071557;28;20190;-53
2021/08/26 08:11:05;;;;;;;4.03;3.60;;;;;;;24.56;43.79;98157.72;5055354;28;20682;-56
2021/08/26 08:13:31;;;;;;;4.00;3.60;;;;;;;24.51;43.74;98160.16;5042959;28;20700;-56
2021/08/26 08:16:00;;;;;;;3.97;3.33;;;;;;;24.50;43.46;98161.19;5032525;28;20186;-56
2021/08/26 08:18:27;;;;;;;4.13;3.70;;;;;;;24.48;43.68;98150.75;5033992;28;20277;-55
2021/08/26 08:20:53;;;;;;;3.93;3.33;;;;;;;24.47;43.62;98154.44;5033982;28;20719;-56
2021/08/26 08:23:20;;;;;;;4.23;3.83;;;;;;;24.48;43.81;98152.59;5033507;28;20214;-54
2021/08/26 08:25:47;;;;;;;3.67;3.30;;;;;;;24.50;43.51;98154.03;5036590;28;20186;-56
2021/08/26 08:28:15;;;;;;;3.93;3.53;;;;;;;24.46;43.59;98158.16;5035661;28;20702;-53
2021/08/26 08:30:43;;;;;;;6.17;3.50;;;;;;;24.46;43.77;98151.97;5036165;28;20591;-55
2021/08/26 08:33:15;;;;;;;3.70;3.40;;;;;;;24.44;43.93;98151.38;5035740;28;20248;-54
2021/08/26 08:35:41;;;;;;;4.20;3.60;;;;;;;24.41;43.72;98149.13;5035874;28;20197;-56
2021/08/26 08:38:08;;;;;;;3.53;3.23;;;;;;;24.42;43.68;98156.09;5033748;28;20190;-56
2021/08/26 08:40:34;;;;;;;3.80;3.50;;;;;;;24.38;43.91;98153.84;5035429;28;20260;-56
2021/08/26 08:43:01;;;;;;;5.60;3.40;;;;;;;24.35;44.00;98159.56;5035019;28;20244;-53
2021/08/26 08:45:28;;;;;;;3.83;3.43;;;;;;;24.37;43.96;98162.03;5034966;28;20170;-53
2021/08/26 08:47:56;;;;;;;3.87;3.50;;;;;;;24.37;44.03;98154.03;5034906;28;20190;-54
2021/08/26 08:50:24;;;;;;;5.27;3.53;;;;;;;24.42;43.88;98158.75;5034710;28;20190;-53
2021/08/26 08:52:52;;;;;;;4.13;3.67;;;;;;;24.48;43.86;98149.91;5034150;28;20233;-53
2021/08/26 08:55:19;;;;;;;3.80;3.50;;;;;;;24.49;43.77;98159.56;5033188;28;20210;-53
2021/08/26 08:57:46;;;;;;;3.40;3.10;;;;;;;24.49;43.67;98152.38;5034039;28;20189;-52
2021/08/26 09:00:17;;;;;;;4.30;3.27;;;;;;;24.47;43.99;98159.78;5034467;28;20723;-51
2021/08/26 09:02:43;;;;;;;4.33;3.37;;;;;;;24.50;43.71;98153.19;5034113;28;20244;-51
2021/08/26 09:05:11;;;;;;;3.40;3.10;;;;;;;24.51;43.84;98147.66;5034201;28;20502;-51
2021/08/26 09:07:38;;;;;;;3.80;3.50;;;;;;;24.52;43.68;98148.47;5034131;28;20265;-55
2021/08/26 09:10:06;;;;;;;3.73;3.43;;;;;;;24.56;43.84;98147.03;5034280;28;20614;-55
2021/08/26 09:12:42;;;;;;;3.07;2.80;;;;;;;24.57;43.81;98147.84;5034244;28;20289;-51
2021/08/26 09:15:16;;;;;;;4.00;3.20;;;;;;;24.56;43.88;98147.03;5033347;28;20269;-53
2021/08/26 09:17:45;;;;;;;3.77;3.43;;;;;;;24.56;43.81;98147.03;5034297;28;20358;-54
2021/08/26 09:20:15;;;;;;;3.93;3.23;;;;;;;24.55;43.67;98144.56;5034188;28;20263;-53
2021/08/26 09:22:42;;;;;;;3.63;3.33;;;;;;;24.53;43.81;98147.47;5033765;28;20216;-54
2021/08/26 09:25:12;;;;;;;3.27;2.97;;;;;;;24.55;43.88;98140.06;5034820;28;20186;-53
2021/08/26 09:27:42;;;;;;;3.80;3.50;;;;;;;24.61;43.62;98143.75;5032543;28;20548;-52
2021/08/26 09:30:10;;;;;;;4.23;3.37;;;;;;;24.60;43.57;98147.41;5033932;28;20244;-53
2021/08/26 09:32:43;;;;;;;3.40;3.10;;;;;;;24.62;43.74;98140.06;5033860;28;20251;-53
2021/08/26 09:35:27;;;;;;;3.50;3.20;;;;;;;24.60;43.99;98142.09;5035875;28;20574;-52
2021/08/26 09:38:01;;;;;;;5.13;3.20;;;;;;;24.57;43.98;98138.00;5036112;28;20656;-53
2021/08/26 09:40:32;;;;;;;3.43;3.13;;;;;;;24.55;43.90;98144.56;5034303;28;20194;-53
2021/08/26 09:43:02;;;;;;;5.50;3.37;;;;;;;24.44;44.19;98143.38;5035857;28;20301;-53
2021/08/26 09:45:39;;;;;;;3.93;3.57;;;;;;;24.51;44.15;98161.00;5036294;28;20240;-54
2021/08/26 09:48:11;;;;;;;3.80;2.87;;;;;;;24.45;44.23;98155.66;5037023;28;20179;-55
2021/08/26 09:50:45;;;;;;;3.63;3.20;;;;;;;24.44;44.25;98164.69;5037643;28;20186;-54
2021/08/26 09:53:14;;;;;;;3.57;3.27;;;;;;;24.46;44.25;98159.97;5036570;28;20206;-53
2021/08/26 09:55:51;;;;;;;3.40;3.10;;;;;;;24.47;44.05;98161.63;5037295;28;20621;-54
2021/08/26 09:58:25;;;;;;;4.43;3.13;;;;;;;24.51;43.98;98157.50;5036364;28;20182;-53
2021/08/26 10:01:09;;;;;;;3.50;3.20;;;;;;;24.55;44.03;98155.25;5035115;28;20198;-52
2021/08/26 10:03:37;;;;;;;2.90;2.70;;;;;;;24.52;43.97;98151.13;5033992;28;20221;-54
2021/08/26 10:06:04;;;;;;;3.50;3.20;;;;;;;24.50;44.04;98155.84;5033666;28;20193;-54
2021/08/26 10:08:32;;;;;;;3.47;3.17;;;;;;;24.52;43.98;98151.13;5033173;28;20192;-55
2021/08/26 10:11:02;;;;;;;3.03;2.83;;;;;;;24.47;43.88;98151.78;5034624;28;20209;-56
2021/08/26 10:13:30;;;;;;;3.63;2.90;;;;;;;24.50;43.81;98154.03;5033945;28;20210;-55
2021/08/26 10:15:58;;;;;;;4.20;3.00;;;;;;;24.51;43.74;98144.16;5033916;28;20240;-54
2021/08/26 10:18:27;;;;;;;3.00;2.80;;;;;;;24.58;43.63;98146.81;5033531;28;20194;-55
2021/08/26 10:20:55;;;;;;;2.90;2.70;;;;;;;24.61;43.47;98143.75;5033699;28;20206;-55
2021/08/26 10:23:22;;;;;;;3.40;3.10;;;;;;;24.58;43.60;98144.97;5033468;28;20210;-55
2021/08/26 10:25:50;;;;;;;3.40;3.10;;;;;;;24.56;43.54;98144.38;5033036;28;20189;-53
2021/08/26 10:28:18;;;;;;;3.90;3.30;;;;;;;24.54;43.66;98143.78;5032978;28;20189;-55
2021/08/26 10:30:45;;;;;;;3.60;3.30;;;;;;;24.54;43.69;98143.78;5033341;28;20194;-55
2021/08/26 10:33:23;;;;;;;3.40;3.10;;;;;;;24.56;43.33;98138.22;5033611;28;20206;-55
2021/08/26 10:35:49;;;;;;;3.53;3.23;;;;;;;24.54;43.45;98133.09;5033306;28;20220;-54
2021/08/26 10:38:22;;;;;;;3.27;2.83;;;;;;;24.54;43.44;98138.44;5032936;28;20725;-56
2021/08/26 10:40:49;;;;;;;3.07;2.87;;;;;;;24.52;43.38;98135.97;5033943;28;20602;-55
2021/08/26 10:43:39;;;;;;;3.63;3.33;;;;;;;24.52;43.38;98127.97;5033062;28;20275;-56
2021/08/26 10:46:08;;;;;;;4.20;2.80;;;;;;;24.53;43.27;98131.47;5030681;28;20214;-56
2021/08/26 10:48:36;;;;;;;3.20;2.90;;;;;;;24.54;43.25;98143.78;5032701;28;20217;-55
2021/08/26 10:51:16;;;;;;;3.70;3.27;;;;;;;24.52;43.39;98137.78;5032974;28;20186;-56
2021/08/26 10:53:47;;;;;;;2.73;2.53;;;;;;;24.54;43.33;98138.44;5032765;28;20213;-55
2021/08/26 10:56:16;;;;;;;3.83;2.97;;;;;;;24.54;43.33;98143.78;5032834;28;20263;-55
2021/08/26 10:58:43;;;;;;;3.47;3.17;;;;;;;24.61;42.87;98144.56;5033193;28;20191;-53
2021/08/26 11:01:29;;;;;;;3.40;3.10;;;;;;;24.58;42.88;98144.16;5035567;28;20263;-53
2021/08/26 11:04:00;;;;;;;4.27;3.20;;;;;;;24.50;42.99;98134.53;5033793;28;20259;-52
2021/08/26 11:06:29;;;;;;;6.13;3.17;;;;;;;24.35;43.30;98127.56;5031844;28;20261;-53
2021/08/26 11:08:56;;;;;;;4.23;3.10;;;;;;;24.32;42.79;98132.50;5032260;28;20656;-52
2021/08/26 11:11:26;;;;;;;5.43;3.27;;;;;;;24.27;42.64;98127.78;5032217;28;20248;-52
2021/08/26 11:14:02;;;;;;;6.43;3.23;;;;;;;24.23;41.98;98122.03;5032227;28;20624;-52
2021/08/26 11:16:28;;;;;;;5.40;3.30;;;;;;;24.21;41.76;98125.97;5032260;28;20193;-52
2021/08/26 11:19:03;;;;;;;4.30;3.37;;;;;;;24.26;41.89;98126.16;5032240;28;20240;-54
2021/08/26 11:21:45;;;;;;;4.57;3.27;;;;;;;24.28;42.18;98132.09;5032420;28;20286;-53
2021/08/26 11:24:12;;;;;;;4.10;3.33;;;;;;;24.30;41.92;98129.25;5035993;28;20232;-52
2021/08/26 11:26:52;;;;;;;4.30;3.57;;;;;;;24.24;41.33;98133.53;5036108;28;20190;-51
2021/08/26 11:29:25;;;;;;;4.60;3.27;;;;;;;24.23;41.23;98129.25;5035630;28;20209;-51
2021/08/26 11:31:54;;;;;;;4.40;3.20;;;;;;;24.18;41.06;98126.34;5035466;28;20214;-51
2021/08/26 11:34:31;;;;;;;3.93;3.20;;;;;;;24.14;40.97;98138.47;5035751;28;20190;-52
2021/08/26 11:36:58;;;;;;;3.77;3.17;;;;;;;24.11;40.74;98137.03;5036023;28;20636;-53
2021/08/26 11:39:28;;;;;;;4.77;3.30;;;;;;;24.13;40.21;98139.50;5035587;28;20185;-52
2021/08/26 11:41:59;;;;;;;4.00;3.60;;;;;;;24.15;40.15;98134.78;5035414;28;20225;-52
2021/08/26 11:44:27;;;;;;;4.17;3.00;;;;;;;24.13;39.70;98136.81;5035170;28;20252;-52